Time;durP1;ratioP1;P1;durP2;ratioP2;P2;SDS_P1;SDS_P2;PMS_P1;PMS_P2;Temp;Humidity;BMP_temperature;BMP_pressure;BME280_temperature;BME280_humidity;BME280_pressure;Samples;Min_cycle;Max_cycle;Signal;HPM_P1;HPM_P2
2021/09/11 00:01:14;;;;;;;7.55;6.75;;;;;;;18.69;100.00;100560.53;5000249;28;20052;-67
2021/09/11 00:03:58;;;;;;;9.35;6.25;;;;;;;18.73;100.00;100555.59;5000198;28;20053;-69
2021/09/11 00:06:42;;;;;;;9.07;6.78;;;;;;;18.76;100.00;100560.63;5014260;28;20124;-68
2021/09/11 00:09:26;;;;;;;7.97;6.57;;;;;;;18.76;100.00;100561.44;5015048;28;20053;-69
2021/09/11 00:12:10;;;;;;;7.10;6.40;;;;;;;18.76;100.00;100555.22;5013685;28;20099;-68
2021/09/11 00:14:54;;;;;;;6.95;6.15;;;;;;;18.77;100.00;100556.91;5000000;28;20436;-69
2021/09/11 00:17:39;;;;;;;9.55;7.13;;;;;;;18.78;100.00;100553.16;4999968;28;20052;-68
2021/09/11 00:20:23;;;;;;;6.88;6.15;;;;;;;18.78;100.00;100555.88;5014538;28;20048;-68
2021/09/11 00:23:12;;;;;;;7.03;6.30;;;;;;;18.78;100.00;100554.00;5013831;28;20515;-68
2021/09/11 00:25:59;;;;;;;8.10;6.63;;;;;;;18.77;100.00;100559.59;4986100;28;20048;-68
2021/09/11 00:28:43;;;;;;;7.20;6.50;;;;;;;18.79;100.00;100562.94;5014809;28;20524;-68
2021/09/11 00:31:27;;;;;;;9.32;6.93;;;;;;;18.75;100.00;100556.22;5013643;28;20095;-69
2021/09/11 00:34:10;;;;;;;8.70;7.00;;;;;;;18.71;100.00;100557.66;5013590;28;20412;-68
2021/09/11 00:36:54;;;;;;;7.07;6.38;;;;;;;18.67;100.00;100561.75;5014128;28;20080;-68
2021/09/11 00:39:38;;;;;;;8.00;6.70;;;;;;;18.62;100.00;100564.16;5013443;28;20412;-69
2021/09/11 00:42:22;;;;;;;6.43;5.82;;;;;;;18.55;100.00;100568.63;5013303;28;20061;-69
2021/09/11 00:45:07;;;;;;;7.30;6.60;;;;;;;18.53;100.00;100570.69;5013322;28;20049;-68
2021/09/11 00:47:51;;;;;;;7.35;6.60;;;;;;;18.48;100.00;100567.75;5013303;28;20052;-68
2021/09/11 00:50:35;;;;;;;7.90;7.10;;;;;;;18.50;100.00;100565.69;5013610;28;20503;-69
2021/09/11 00:53:20;;;;;;;11.05;7.18;;;;;;;18.51;100.00;100573.59;5013264;28;20107;-68
2021/09/11 00:56:05;;;;;;;9.13;6.60;;;;;;;18.42;100.00;100576.56;5012613;28;20100;-69
2021/09/11 00:58:49;;;;;;;9.20;7.38;;;;;;;18.42;100.00;100568.47;5014155;28;20048;-68
2021/09/11 01:01:33;;;;;;;7.63;6.82;;;;;;;18.42;100.00;100574.72;5013336;28;20131;-69
2021/09/11 01:04:17;;;;;;;8.05;7.25;;;;;;;18.34;100.00;100575.84;5012989;28;20053;-68
2021/09/11 01:07:01;;;;;;;12.40;7.97;;;;;;;18.32;100.00;100578.72;5013748;28;20061;-68
2021/09/11 01:09:45;;;;;;;;;;;;;;;18.31;100.00;100585.13;4985808;28;20040;-68
2021/09/11 01:12:29;;;;;;;10.75;7.53;;;;;;;18.35;100.00;100574.81;4999358;28;20307;-68
2021/09/11 01:15:13;;;;;;;9.93;7.65;;;;;;;18.34;100.00;100576.66;4998835;28;20053;-68
2021/09/11 01:17:57;;;;;;;8.27;7.47;;;;;;;18.32;100.00;100586.00;5012821;28;20103;-69
2021/09/11 01:20:41;;;;;;;10.18;7.75;;;;;;;18.34;100.00;100587.47;5012845;28;20049;-69
2021/09/11 01:23:26;;;;;;;8.73;7.57;;;;;;;18.28;100.00;100590.88;5012569;28;20069;-68
2021/09/11 01:26:14;;;;;;;8.63;7.20;;;;;;;18.33;100.00;100575.00;4998838;28;20412;-69
2021/09/11 01:28:58;;;;;;;8.57;7.00;;;;;;;18.31;100.00;100582.44;4998896;28;20084;-69
2021/09/11 01:31:42;;;;;;;8.85;7.70;;;;;;;18.31;100.00;100587.84;5012717;28;20104;-69
2021/09/11 01:34:30;;;;;;;11.60;7.28;;;;;;;18.32;100.00;100577.91;5013678;28;20045;-69
2021/09/11 01:37:14;;;;;;;8.13;6.90;;;;;;;18.32;100.00;100567.91;5012324;28;20077;-68
2021/09/11 01:39:58;;;;;;;8.25;7.03;;;;;;;18.36;100.00;100579.19;5012663;28;20053;-68
2021/09/11 01:42:42;;;;;;;13.18;7.25;;;;;;;18.38;100.00;100572.59;5012206;28;20507;-66
2021/09/11 01:45:26;;;;;;;8.77;7.38;;;;;;;18.38;100.00;100567.19;5012686;28;20579;-68
2021/09/11 01:48:10;;;;;;;8.18;7.20;;;;;;;18.38;100.00;100571.72;5012227;28;20566;-68
2021/09/11 01:50:55;;;;;;;8.65;6.22;;;;;;;18.38;100.00;100569.03;5013500;28;20423;-68
2021/09/11 01:53:38;;;;;;;7.38;6.57;;;;;;;18.35;100.00;100572.97;5012498;28;20517;-69
2021/09/11 01:56:22;;;;;;;8.18;6.78;;;;;;;18.32;100.00;100562.53;5012250;28;20053;-68
2021/09/11 01:59:06;;;;;;;7.22;6.43;;;;;;;18.27;100.00;100574.88;5012427;28;20048;-69
2021/09/11 02:01:50;;;;;;;9.88;7.30;;;;;;;18.29;100.00;100572.84;4998462;28;20137;-69
2021/09/11 02:04:35;;;;;;;9.48;7.35;;;;;;;18.29;100.00;100579.09;5012228;28;20116;-67
2021/09/11 02:07:19;;;;;;;9.32;7.78;;;;;;;18.29;100.00;100580.94;5000874;28;20133;-69
2021/09/11 02:10:04;;;;;;;11.18;8.40;;;;;;;18.27;100.00;100571.16;5002394;28;20409;-69
2021/09/11 02:12:48;;;;;;;10.40;8.18;;;;;;;18.28;100.00;100577.41;5002365;28;20045;-69
2021/09/11 02:15:32;;;;;;;9.00;8.07;;;;;;;18.26;100.00;100573.19;5015823;28;20129;-68
2021/09/11 02:18:16;;;;;;;10.00;7.57;;;;;;;18.25;100.00;100576.91;5016115;28;20053;-68
2021/09/11 02:21:00;;;;;;;10.18;8.43;;;;;;;18.24;100.00;100584.16;5015782;28;20168;-68
2021/09/11 02:23:44;;;;;;;8.98;7.93;;;;;;;18.23;100.00;100573.56;5016720;28;20074;-68
2021/09/11 02:26:28;;;;;;;10.43;8.30;;;;;;;18.22;100.00;100577.31;5016643;28;20407;-68
2021/09/11 02:29:11;;;;;;;9.55;8.55;;;;;;;18.17;100.00;100575.16;5016917;28;20053;-69
2021/09/11 02:31:55;;;;;;;13.75;9.27;;;;;;;18.12;100.00;100576.72;5016626;28;20099;-68
2021/09/11 02:34:39;;;;;;;9.75;8.10;;;;;;;18.08;100.00;100576.25;5015718;28;20052;-69
2021/09/11 02:37:23;;;;;;;11.55;9.13;;;;;;;18.12;100.00;100574.84;5016506;28;20049;-68
2021/09/11 02:40:07;;;;;;;9.57;8.63;;;;;;;18.09;100.00;100574.38;5016786;28;20142;-69
2021/09/11 02:42:51;;;;;;;10.82;8.55;;;;;;;18.09;100.00;100571.69;5001681;28;20558;-68
2021/09/11 02:45:35;;;;;;;9.63;8.60;;;;;;;18.04;100.00;100574.13;5015828;28;20539;-68
2021/09/11 02:48:19;;;;;;;10.70;9.60;;;;;;;18.04;100.00;100569.56;5016305;28;20052;-68
2021/09/11 02:51:03;;;;;;;10.43;8.52;;;;;;;18.02;100.00;100574.28;5001902;28;20140;-68
2021/09/11 02:53:47;;;;;;;11.60;8.77;;;;;;;18.00;100.00;100570.94;5016252;28;20137;-68
2021/09/11 02:56:31;;;;;;;;;;;;;;;17.98;100.00;100583.78;5015483;28;20471;-68
2021/09/11 02:59:15;;;;;;;10.60;8.10;;;;;;;17.92;100.00;100581.81;5016375;28;19920;-68
2021/09/11 03:01:59;;;;;;;10.18;8.63;;;;;;;17.95;100.00;100586.88;5016561;28;20056;-68
2021/09/11 03:04:43;;;;;;;11.02;8.93;;;;;;;17.95;100.00;100591.41;5016230;28;20435;-69
2021/09/11 03:07:27;;;;;;;10.90;8.57;;;;;;;17.92;100.00;100581.81;5001070;28;20052;-68
2021/09/11 03:10:11;;;;;;;;;;;;;;;17.83;100.00;100585.59;5001415;28;20069;-68
2021/09/11 03:12:55;;;;;;;9.70;8.15;;;;;;;17.83;100.00;100585.59;4987806;28;19920;-68
2021/09/11 03:15:39;;;;;;;11.25;9.15;;;;;;;17.84;100.00;100584.59;5015893;28;20554;-69
2021/09/11 03:18:23;;;;;;;10.52;8.63;;;;;;;17.78;100.00;100582.63;5000445;28;20065;-69
2021/09/11 03:21:08;;;;;;;10.27;8.07;;;;;;;17.76;100.00;100581.13;5014656;28;20080;-68
2021/09/11 03:23:51;;;;;;;12.30;9.70;;;;;;;17.78;100.00;100579.94;5014775;28;20514;-68
2021/09/11 03:26:35;;;;;;;11.32;9.30;;;;;;;17.80;100.00;100577.88;5014574;28;20052;-68
2021/09/11 03:29:19;;;;;;;10.77;8.50;;;;;;;17.84;100.00;100579.22;5014802;28;20088;-68
2021/09/11 03:32:04;;;;;;;11.73;8.80;;;;;;;17.86;100.00;100571.78;5014745;28;20084;-69
2021/09/11 03:34:48;;;;;;;10.77;9.40;;;;;;;17.88;100.00;100568.88;5000312;28;20141;-70
2021/09/11 03:37:32;;;;;;;10.20;8.95;;;;;;;17.84;100.00;100573.81;5065920;23;20514;-70
2021/09/11 03:40:16;;;;;;;10.25;8.07;;;;;;;17.91;100.00;100582.00;5054478;28;20051;-70
2021/09/11 03:43:00;;;;;;;9.63;8.07;;;;;;;17.89;100.00;100567.88;5054161;28;20048;-70
2021/09/11 03:45:45;;;;;;;12.93;9.25;;;;;;;17.80;100.00;100561.72;5068291;28;20136;-70
2021/09/11 03:48:30;;;;;;;10.50;8.38;;;;;;;17.78;100.00;100571.84;5054965;28;20522;-69
2021/09/11 03:51:14;;;;;;;12.27;9.60;;;;;;;17.74;100.00;100577.78;5054192;28;20042;-70
2021/09/11 03:53:58;;;;;;;10.88;9.05;;;;;;;17.72;100.00;100577.94;5040103;28;20044;-70
2021/09/11 03:56:42;;;;;;;11.02;9.68;;;;;;;17.71;100.00;100572.75;5039688;28;20047;-70
2021/09/11 03:59:26;;;;;;;11.60;9.65;;;;;;;17.70;100.00;100579.19;5054778;28;20063;-71
2021/09/11 04:02:09;;;;;;;10.23;8.98;;;;;;;17.72;100.00;100577.13;5054816;28;20052;-70
2021/09/11 04:04:53;;;;;;;9.95;8.88;;;;;;;17.71;100.00;100575.47;5039827;28;20573;-68
2021/09/11 04:07:37;;;;;;;12.05;9.77;;;;;;;17.73;100.00;100582.31;5053801;28;20534;-71
2021/09/11 04:10:21;;;;;;;12.70;9.77;;;;;;;17.74;100.00;100578.63;5053502;28;20052;-71
2021/09/11 04:13:05;;;;;;;12.02;9.80;;;;;;;17.77;100.00;100577.41;5053776;28;20502;-70
2021/09/11 04:15:49;;;;;;;12.38;9.48;;;;;;;17.80;100.00;100574.38;5054535;28;20107;-70
2021/09/11 04:18:33;;;;;;;10.98;9.65;;;;;;;17.87;100.00;100584.22;5039540;28;20079;-70
2021/09/11 04:21:16;;;;;;;9.45;8.35;;;;;;;17.93;100.00;100575.38;5053615;28;20048;-70
2021/09/11 04:24:04;;;;;;;10.02;8.95;;;;;;;17.97;100.00;100584.81;5053491;28;20052;-71
2021/09/11 04:26:48;;;;;;;12.30;9.13;;;;;;;18.00;100.00;100583.63;5053424;28;20492;-70
2021/09/11 04:29:32;;;;;;;10.27;9.18;;;;;;;18.02;100.00;100586.97;5053141;28;20099;-70
2021/09/11 04:32:16;;;;;;;10.30;8.82;;;;;;;18.02;100.00;100585.09;5053186;28;20047;-70
2021/09/11 04:35:01;;;;;;;12.73;8.55;;;;;;;18.02;100.00;100586.97;5053057;28;20044;-70
2021/09/11 04:37:45;;;;;;;12.82;8.80;;;;;;;18.05;100.00;100583.88;5052871;28;20411;-70
2021/09/11 04:40:29;;;;;;;10.70;8.75;;;;;;;18.04;100.00;100571.41;5039395;28;20052;-70
2021/09/11 04:43:13;;;;;;;13.43;9.30;;;;;;;17.99;100.00;100582.75;5053063;28;20422;-70
2021/09/11 04:45:58;;;;;;;9.70;8.70;;;;;;;17.91;100.00;100585.53;5053974;28;20055;-70
2021/09/11 04:48:41;;;;;;;11.27;9.32;;;;;;;17.95;100.00;100591.41;5052824;28;20502;-70
2021/09/11 04:51:25;;;;;;;11.75;8.70;;;;;;;17.99;100.00;100593.56;5054035;28;20047;-70
2021/09/11 04:54:09;;;;;;;10.23;9.00;;;;;;;17.98;100.00;100591.88;5038784;28;20055;-70
2021/09/11 04:56:53;;;;;;;10.02;8.82;;;;;;;17.98;100.00;100591.03;5052748;28;20101;-70
2021/09/11 04:59:37;;;;;;;10.32;7.93;;;;;;;17.96;100.00;100590.38;5052881;28;20426;-68
2021/09/11 05:02:21;;;;;;;9.85;8.57;;;;;;;17.91;100.00;100585.53;5052997;28;20419;-70
2021/09/11 05:05:06;;;;;;;8.68;7.88;;;;;;;17.91;100.00;100585.53;5054007;28;20075;-70
2021/09/11 05:07:50;;;;;;;10.98;8.77;;;;;;;17.88;100.00;100580.50;5052440;28;20558;-70
2021/09/11 05:10:34;;;;;;;12.48;9.05;;;;;;;17.88;100.00;100591.31;5053741;28;20048;-70
2021/09/11 05:13:18;;;;;;;11.52;8.85;;;;;;;17.82;100.00;100594.72;5052898;28;20044;-70
2021/09/11 05:16:02;;;;;;;9.75;8.73;;;;;;;17.81;100.00;100584.94;5052542;28;20097;-70
2021/09/11 05:18:46;;;;;;;11.80;9.13;;;;;;;17.77;100.00;100589.03;5052600;28;20044;-70
2021/09/11 05:21:30;;;;;;;10.23;9.07;;;;;;;17.75;100.00;100601.88;5038225;28;20148;-70
2021/09/11 05:24:16;;;;;;;12.52;9.25;;;;;;;17.76;100.00;100600.84;5052568;28;20063;-70
2021/09/11 05:27:00;;;;;;;11.05;8.77;;;;;;;17.78;100.00;100596.13;5038533;28;20099;-70
2021/09/11 05:29:44;;;;;;;;;;;;;;;17.80;100.00;100598.63;5053756;28;20059;-70
2021/09/11 05:32:28;;;;;;;14.40;9.17;;;;;;;17.80;100.00;100604.84;5053156;28;19923;-70
2021/09/11 05:35:12;;;;;;;;;;;;;;;17.83;100.00;100599.09;5053759;28;20454;-70
2021/09/11 05:37:56;;;;;;;11.50;8.70;;;;;;;17.86;100.00;100609.53;5052940;28;20353;-70
2021/09/11 05:40:40;;;;;;;12.70;8.80;;;;;;;17.88;100.00;100607.50;5053241;28;20044;-70
2021/09/11 05:43:24;;;;;;;10.75;9.23;;;;;;;17.91;100.00;100611.69;5038075;28;20454;-70
2021/09/11 05:46:08;;;;;;;11.68;9.30;;;;;;;17.95;100.00;100615.69;5052288;28;20474;-69
2021/09/11 05:48:52;;;;;;;11.10;8.95;;;;;;;17.99;100.00;100614.28;5052904;28;20047;-71
2021/09/11 05:51:36;;;;;;;10.63;9.35;;;;;;;18.01;100.00;100617.66;5037839;28;20515;-70
2021/09/11 05:54:20;;;;;;;11.25;9.57;;;;;;;17.94;100.00;100628.34;5037825;28;20044;-70
2021/09/11 05:57:04;;;;;;;;;;;;;;;17.99;100.00;100616.97;5053290;28;20052;-69
2021/09/11 05:59:48;;;;;;;11.10;9.30;;;;;;;18.04;100.00;100626.22;5051867;28;19999;-71
2021/09/11 06:02:32;;;;;;;13.40;9.40;;;;;;;18.06;100.00;100629.56;5053001;28;20158;-69
2021/09/11 06:05:16;;;;;;;10.98;8.93;;;;;;;18.05;100.00;100630.59;5053107;28;20511;-71
2021/09/11 06:08:00;;;;;;;14.45;9.95;;;;;;;18.07;100.00;100623.16;5052364;28;20610;-70
2021/09/11 06:10:44;;;;;;;12.55;9.45;;;;;;;18.12;100.00;100631.53;5038264;28;20064;-70
2021/09/11 06:13:28;;;;;;;11.93;9.55;;;;;;;18.18;100.00;100620.00;5053030;28;20048;-70
2021/09/11 06:16:12;;;;;;;10.50;9.40;;;;;;;18.18;100.00;100620.00;5037886;28;20410;-70
2021/09/11 06:18:57;;;;;;;12.30;10.05;;;;;;;18.23;100.00;100628.38;5053274;28;20110;-70
2021/09/11 06:21:41;;;;;;;14.60;10.80;;;;;;;18.28;100.00;100623.28;5051688;28;20099;-70
2021/09/11 06:24:25;;;;;;;13.45;10.43;;;;;;;18.36;100.00;100622.38;5052800;28;20044;-70
2021/09/11 06:27:09;;;;;;;14.27;11.45;;;;;;;18.38;100.00;100621.19;5051790;28;20055;-70
2021/09/11 06:29:53;;;;;;;13.15;11.02;;;;;;;18.43;100.00;100626.84;5052866;28;20087;-70
2021/09/11 06:32:37;;;;;;;11.55;9.80;;;;;;;18.52;100.00;100629.28;5051511;28;20454;-70
2021/09/11 06:35:21;;;;;;;14.93;10.15;;;;;;;18.60;100.00;100631.88;5037405;28;20060;-71
2021/09/11 06:38:05;;;;;;;13.73;11.18;;;;;;;18.60;100.00;100625.63;5051532;28;20048;-70
2021/09/11 06:40:49;;;;;;;12.63;9.57;;;;;;;18.62;100.00;100623.59;5051847;28;20075;-70
2021/09/11 06:43:33;;;;;;;13.80;9.85;;;;;;;18.65;100.00;100623.19;5051647;28;20044;-70
2021/09/11 06:46:17;;;;;;;12.13;10.82;;;;;;;18.63;100.00;100631.50;5051356;28;20051;-70
2021/09/11 06:49:02;;;;;;;13.23;11.25;;;;;;;18.69;100.00;100629.91;5051685;28;20072;-70
2021/09/11 06:51:46;;;;;;;12.45;10.07;;;;;;;18.67;100.00;100631.97;5052632;28;20098;-70
2021/09/11 06:54:30;;;;;;;12.48;10.77;;;;;;;18.62;100.00;100637.09;5053862;28;20102;-70
2021/09/11 06:57:14;;;;;;;14.77;10.82;;;;;;;18.69;100.00;100635.31;5055998;28;20098;-70
2021/09/11 06:59:58;;;;;;;12.80;9.93;;;;;;;18.78;100.00;100635.03;5055131;28;20060;-70
2021/09/11 07:02:42;;;;;;;14.40;11.25;;;;;;;18.81;100.00;100634.66;5055328;28;20136;-70
2021/09/11 07:05:26;;;;;;;16.88;11.50;;;;;;;18.84;100.00;100636.13;5054972;28;20048;-70
2021/09/11 07:08:10;;;;;;;13.65;10.85;;;;;;;18.81;100.00;100637.38;5055992;28;20104;-70
2021/09/11 07:10:54;;;;;;;11.05;9.88;;;;;;;18.96;100.00;100631.91;5055964;28;20056;-70
2021/09/11 07:13:38;;;;;;;14.45;10.48;;;;;;;19.04;100.00;100629.13;5055965;28;20510;-69
2021/09/11 07:16:22;;;;;;;11.27;10.00;;;;;;;19.14;100.00;100624.25;5054755;28;20043;-70
2021/09/11 07:19:06;;;;;;;13.27;10.23;;;;;;;19.27;100.00;100624.44;5054837;28;20095;-70
2021/09/11 07:21:50;;;;;;;12.27;9.45;;;;;;;19.30;100.00;100630.28;5055554;28;20056;-71
2021/09/11 07:24:34;;;;;;;15.48;10.05;;;;;;;19.22;100.00;100632.28;5054686;28;20514;-70
2021/09/11 07:27:18;;;;;;;10.93;9.60;;;;;;;19.28;100.00;100628.81;5054322;28;20572;-69
2021/09/11 07:30:02;;;;;;;10.57;9.15;;;;;;;19.29;100.00;100641.31;5054542;28;20439;-70
2021/09/11 07:32:46;;;;;;;10.95;9.68;;;;;;;19.21;100.00;100644.13;5054529;28;20525;-70
2021/09/11 07:35:30;;;;;;;15.32;9.45;;;;;;;19.29;100.00;100644.00;5040368;28;20051;-70
2021/09/11 07:38:15;;;;;;;10.48;9.10;;;;;;;19.24;100.00;100641.03;5054461;28;20411;-70
2021/09/11 07:40:59;;;;;;;11.68;8.55;;;;;;;19.27;100.00;100654.19;5054159;28;20052;-70
2021/09/11 07:43:43;;;;;;;10.85;8.38;;;;;;;19.35;100.00;100651.34;5054020;28;20048;-71
2021/09/11 07:46:27;;;;;;;10.35;8.75;;;;;;;19.49;100.00;100655.88;5054426;28;20102;-70
2021/09/11 07:49:10;;;;;;;12.13;8.77;;;;;;;19.60;100.00;100663.47;5054986;28;20124;-70
2021/09/11 07:51:54;;;;;;;8.80;7.45;;;;;;;19.72;100.00;100670.06;5055138;28;20055;-70
2021/09/11 07:54:38;;;;;;;9.60;8.32;;;;;;;19.82;100.00;100665.97;5054096;28;20048;-70
2021/09/11 07:57:22;;;;;;;8.68;7.78;;;;;;;19.86;100.00;100658.31;5039694;28;20510;-70
2021/09/11 08:00:07;;;;;;;12.48;8.38;;;;;;;19.81;100.00;100671.59;5055075;28;20052;-71
2021/09/11 08:02:51;;;;;;;10.82;7.47;;;;;;;19.88;100.00;100676.03;5039829;28;20135;-70
2021/09/11 08:05:36;;;;;;;10.90;8.20;;;;;;;19.82;100.00;100673.28;5039290;28;20052;-70
2021/09/11 08:08:21;;;;;;;12.07;7.75;;;;;;;19.83;100.00;100669.53;5053804;28;20056;-70
2021/09/11 08:11:08;;;;;;;10.30;7.75;;;;;;;19.97;100.00;100683.00;5053831;28;20186;-70
2021/09/11 08:13:53;;;;;;;9.48;7.30;;;;;;;19.98;100.00;100681.09;5054711;28;20415;-70
2021/09/11 08:16:37;;;;;;;10.48;8.15;;;;;;;20.11;100.00;100689.41;5039614;28;20575;-70
2021/09/11 08:19:21;;;;;;;10.95;7.63;;;;;;;20.07;100.00;100678.13;5039742;28;20064;-70
2021/09/11 08:22:05;;;;;;;8.25;7.45;;;;;;;20.09;100.00;100683.34;5054454;28;20135;-70
2021/09/11 08:24:49;;;;;;;10.27;7.75;;;;;;;20.22;100.00;100683.44;5053242;28;20087;-70
2021/09/11 08:27:32;;;;;;;8.23;7.10;;;;;;;20.30;100.00;100683.31;5039117;28;20087;-70
2021/09/11 08:30:16;;;;;;;7.95;7.10;;;;;;;20.46;100.00;100683.00;5039534;28;20129;-70
2021/09/11 08:33:00;;;;;;;9.57;6.80;;;;;;;20.63;100.00;100689.78;5053073;28;20419;-70
2021/09/11 08:35:44;;;;;;;;;;;;;;;20.58;100.00;100681.41;5053516;28;20056;-71
2021/09/11 08:38:31;;;;;;;8.73;7.68;;;;;;;20.64;100.00;100678.75;5053259;28;19967;-69
2021/09/11 08:41:14;;;;;;;7.88;6.88;;;;;;;20.82;100.00;100684.47;5053926;28;20099;-70
2021/09/11 08:44:00;;;;;;;;;;;;;;;20.77;100.00;100686.13;5053486;28;20060;-70
2021/09/11 08:46:44;;;;;;;8.35;7.18;;;;;;;20.88;100.00;100682.88;5067047;28;19958;-69
2021/09/11 08:49:30;;;;;;;7.80;7.00;;;;;;;21.13;100.00;100686.78;5053054;28;20093;-71
2021/09/11 08:52:14;;;;;;;8.00;7.13;;;;;;;21.10;100.00;100693.44;5053308;28;20510;-70
2021/09/11 08:54:58;;;;;;;;;;;;;;;21.29;99.08;100688.06;5039283;28;20403;-70
2021/09/11 08:58:05;;;;;;;7.78;6.97;;;;;;;21.46;97.31;100683.13;5066885;28;19961;-71
2021/09/11 09:00:51;;;;;;;7.30;6.03;;;;;;;21.75;95.76;100683.66;5052649;28;20095;-70
2021/09/11 09:03:41;;;;;;;8.90;6.47;;;;;;;22.00;92.97;100692.88;5052903;28;20438;-70
2021/09/11 09:06:28;;;;;;;7.50;6.28;;;;;;;22.20;89.75;100684.75;5038334;28;20051;-70
2021/09/11 09:09:14;;;;;;;9.77;6.50;;;;;;;22.07;89.51;100704.59;5053652;28;20047;-71
2021/09/11 09:12:11;;;;;;;7.13;6.40;;;;;;;22.03;89.27;100692.47;5052411;28;20071;-70
2021/09/11 09:15:15;;;;;;;6.93;6.22;;;;;;;22.38;88.66;100688.50;5052655;28;20549;-70
2021/09/11 09:17:59;;;;;;;7.65;6.20;;;;;;;22.59;87.97;100701.03;5053119;28;20073;-71
2021/09/11 09:20:43;;;;;;;6.93;5.60;;;;;;;22.72;85.90;100688.25;5053552;28;20399;-71
2021/09/11 09:23:29;;;;;;;9.98;6.00;;;;;;;22.46;85.40;100691.03;5052161;28;20055;-71
2021/09/11 09:26:13;;;;;;;6.45;5.78;;;;;;;22.46;85.70;100680.16;5052136;28;20506;-70
2021/09/11 09:29:10;;;;;;;7.15;5.95;;;;;;;22.61;83.76;100685.38;5038416;28;20048;-71
2021/09/11 09:31:58;;;;;;;7.18;5.88;;;;;;;22.67;83.38;100684.50;5038185;28;20051;-71
2021/09/11 09:34:48;;;;;;;7.65;5.35;;;;;;;22.83;83.20;100674.00;5038884;28;20123;-71
2021/09/11 09:37:32;;;;;;;6.75;5.63;;;;;;;22.82;84.05;100677.78;5069604;23;20052;-68
2021/09/11 09:40:30;;;;;;;6.63;5.22;;;;;;;22.39;85.66;100695.59;5032130;28;20523;-68
2021/09/11 09:43:38;;;;;;;7.78;5.57;;;;;;;22.78;83.79;100684.72;5018354;28;20048;-68
2021/09/11 09:46:22;;;;;;;6.63;5.65;;;;;;;23.17;80.21;100676.47;5032375;28;20566;-68
2021/09/11 09:49:06;;;;;;;7.72;5.20;;;;;;;23.51;78.86;100675.22;4998408;28;20132;-68
2021/09/11 09:51:51;;;;;;;8.40;5.30;;;;;;;24.04;77.45;100680.16;5012558;28;20570;-68
2021/09/11 09:54:35;;;;;;;5.60;5.10;;;;;;;23.98;77.02;100672.03;5012502;28;20078;-68
2021/09/11 09:57:19;;;;;;;5.68;5.18;;;;;;;24.99;71.61;100672.34;5012198;28;20574;-68
2021/09/11 10:00:04;;;;;;;5.57;4.97;;;;;;;26.23;64.61;100663.28;4998338;28;20133;-66
2021/09/11 10:02:48;;;;;;;5.85;4.80;;;;;;;26.80;61.52;100663.31;5013474;28;20077;-68
2021/09/11 10:05:33;;;;;;;4.82;4.32;;;;;;;27.20;59.52;100661.47;5011919;28;20052;-68
2021/09/11 10:08:18;;;;;;;5.15;4.65;;;;;;;27.89;56.18;100664.78;5012099;28;20056;-68
2021/09/11 10:11:09;;;;;;;5.38;4.20;;;;;;;29.89;51.39;100664.09;4998446;28;20044;-68
2021/09/11 10:13:59;;;;;;;4.97;4.00;;;;;;;30.02;49.31;100659.81;5012066;28;20041;-68
2021/09/11 10:16:45;;;;;;;6.47;3.90;;;;;;;30.46;48.16;100654.97;5026140;28;20405;-69
2021/09/11 10:19:36;;;;;;;3.97;3.58;;;;;;;29.87;49.04;100649.78;5012013;28;20531;-68
2021/09/11 10:22:27;;;;;;;5.50;4.05;;;;;;;30.13;48.44;100650.56;5012236;28;20523;-69
2021/09/11 10:25:11;;;;;;;4.70;4.03;;;;;;;31.13;46.09;100640.25;5013141;28;20115;-68
2021/09/11 10:28:22;;;;;;;5.55;4.10;;;;;;;31.71;44.01;100641.84;5013170;28;20053;-68
2021/09/11 10:31:12;;;;;;;4.68;4.22;;;;;;;32.37;42.05;100647.16;5015734;28;20060;-69
2021/09/11 10:33:59;;;;;;;4.07;3.78;;;;;;;32.89;40.94;100644.06;5015840;28;20057;-69
2021/09/11 10:36:47;;;;;;;4.35;3.83;;;;;;;31.22;44.45;100646.94;5002149;28;20045;-70
2021/09/11 10:39:32;;;;;;;4.13;3.78;;;;;;;31.98;42.34;100625.91;5015818;28;20052;-67
2021/09/11 10:42:16;;;;;;;4.53;3.70;;;;;;;32.55;41.33;100621.75;5016753;28;20458;-69
2021/09/11 10:45:04;;;;;;;4.40;3.75;;;;;;;31.68;41.80;100632.19;5001808;28;20041;-69
2021/09/11 10:47:48;;;;;;;6.13;3.30;;;;;;;33.22;39.69;100624.91;5001587;28;20052;-69
2021/09/11 10:50:39;;;;;;;3.78;3.45;;;;;;;33.10;38.67;100619.66;5001466;28;20571;-69
2021/09/11 10:53:24;;;;;;;6.05;3.70;;;;;;;30.89;44.00;100629.94;5016517;28;20036;-68
2021/09/11 10:56:32;;;;;;;4.97;3.72;;;;;;;28.36;49.20;100630.50;5001554;28;20518;-68
2021/09/11 10:59:19;;;;;;;4.03;3.17;;;;;;;27.07;55.19;100615.16;5001663;28;20045;-68
2021/09/11 11:02:06;;;;;;;3.95;3.58;;;;;;;26.63;57.68;100620.50;5015104;28;20048;-68
2021/09/11 11:04:50;;;;;;;3.85;3.55;;;;;;;26.27;59.47;100620.72;5016033;28;20080;-68
2021/09/11 11:07:38;;;;;;;3.80;3.50;;;;;;;25.98;61.51;100622.50;5015407;28;20415;-68
2021/09/11 11:10:22;;;;;;;4.38;3.70;;;;;;;25.51;63.62;100615.22;5015231;28;20064;-68
2021/09/11 11:13:06;;;;;;;6.93;4.03;;;;;;;26.81;58.12;100613.00;5001261;28;20084;-68
2021/09/11 11:15:57;;;;;;;4.10;3.70;;;;;;;27.92;54.46;100612.19;5016075;28;20107;-67
2021/09/11 11:18:48;;;;;;;3.90;3.53;;;;;;;29.31;50.16;100601.63;5015058;28;20056;-68
2021/09/11 11:21:32;;;;;;;7.10;4.28;;;;;;;29.74;48.90;100600.69;5015749;28;20132;-69
2021/09/11 11:24:16;;;;;;;6.07;3.80;;;;;;;27.94;53.74;100601.81;5014999;28;20069;-68
2021/09/11 11:27:04;;;;;;;5.60;3.97;;;;;;;26.69;59.00;100608.59;5000686;28;20048;-68
2021/09/11 11:29:50;;;;;;;4.70;4.30;;;;;;;26.74;59.38;100615.03;5014860;28;20057;-68
2021/09/11 11:32:35;;;;;;;5.63;3.95;;;;;;;25.68;63.33;100609.91;5000691;28;20084;-68
2021/09/11 11:35:19;;;;;;;4.60;4.03;;;;;;;25.40;64.87;100604.22;5015732;28;20475;-68
2021/09/11 11:38:03;;;;;;;;;;;;;;;24.79;68.18;100601.66;5000957;28;20135;-68
2021/09/11 11:40:47;;;;;;;5.15;4.55;;;;;;;24.92;68.30;100604.22;4999971;28;19925;-68
2021/09/11 11:43:33;;;;;;;4.95;4.43;;;;;;;25.61;65.41;100598.28;5014218;28;20049;-68
2021/09/11 11:46:17;;;;;;;5.05;4.55;;;;;;;25.77;64.16;100598.44;5014206;28;20084;-68
2021/09/11 11:49:01;;;;;;;6.72;4.47;;;;;;;25.36;65.33;100589.41;5014206;28;20515;-68
2021/09/11 11:51:51;;;;;;;4.22;3.88;;;;;;;25.35;65.52;100587.75;5014371;28;20104;-68
2021/09/11 11:54:37;;;;;;;4.53;4.10;;;;;;;26.61;60.33;100578.88;5000375;28;20126;-69
2021/09/11 11:57:23;;;;;;;4.90;3.90;;;;;;;27.54;54.77;100579.16;5014035;28;20251;-68
2021/09/11 12:00:10;;;;;;;4.00;3.60;;;;;;;28.29;54.87;100566.75;5014283;28;20052;-68
2021/09/11 12:02:55;;;;;;;4.22;3.70;;;;;;;28.28;53.53;100575.22;5014135;28;20055;-68
2021/09/11 12:05:42;;;;;;;3.72;3.42;;;;;;;29.08;52.01;100579.09;5013783;28;20084;-68
2021/09/11 12:08:27;;;;;;;3.88;3.30;;;;;;;30.19;48.56;100577.19;5013830;28;20527;-69
2021/09/11 12:11:18;;;;;;;4.97;3.50;;;;;;;30.97;46.07;100574.34;5014013;28;20515;-68
2021/09/11 12:14:04;;;;;;;5.03;3.65;;;;;;;31.11;44.63;100564.47;5014062;28;20062;-67
2021/09/11 12:16:48;;;;;;;4.22;3.45;;;;;;;31.64;44.14;100564.91;5013894;28;20060;-69
2021/09/11 12:19:32;;;;;;;4.80;3.35;;;;;;;32.10;42.23;100552.81;5027927;28;20100;-69
2021/09/11 12:22:22;;;;;;;3.78;2.90;;;;;;;32.07;42.35;100558.06;4999887;28;20049;-68
2021/09/11 12:25:06;;;;;;;3.53;2.95;;;;;;;32.28;42.13;100557.75;5014095;28;20041;-69
2021/09/11 12:27:50;;;;;;;3.35;2.70;;;;;;;31.25;43.63;100560.16;5013302;28;20049;-68
2021/09/11 12:30:51;;;;;;;3.47;2.90;;;;;;;29.86;47.70;100555.47;4999395;28;20187;-67
2021/09/11 12:33:57;;;;;;;5.40;3.53;;;;;;;28.52;51.85;100552.84;5013891;28;20416;-68
2021/09/11 12:36:42;;;;;;;3.25;2.95;;;;;;;28.16;52.83;100567.13;4999563;28;20466;-68
2021/09/11 12:39:42;;;;;;;3.58;3.10;;;;;;;26.67;58.08;100556.06;4999505;28;20060;-68